sensor_id;sensor_type;location;lat;lon;timestamp;P1;durP1;ratioP1;P2;durP2;ratioP2
65275;SDS011;51875;49.994;14.052;2023-04-23T00:01:14;7.38;;;4.43;;
65275;SDS011;51875;49.994;14.052;2023-04-23T00:02:32;9.05;;;4.65;;
65275;SDS011;51875;49.994;14.052;2023-04-23T00:03:48;8.05;;;5.05;;
65275;SDS011;51875;49.994;14.052;2023-04-23T00:05:05;11.00;;;6.03;;
65275;SDS011;51875;49.994;14.052;2023-04-23T00:06:21;14.52;;;8.73;;
65275;SDS011;51875;49.994;14.052;2023-04-23T00:07:37;15.82;;;9.40;;
65275;SDS011;51875;49.994;14.052;2023-04-23T00:08:53;16.20;;;7.97;;
65275;SDS011;51875;49.994;14.052;2023-04-23T00:10:09;8.65;;;5.72;;
65275;SDS011;51875;49.994;14.052;2023-04-23T00:11:25;8.52;;;4.88;;
65275;SDS011;51875;49.994;14.052;2023-04-23T00:12:41;10.45;;;4.70;;
65275;SDS011;51875;49.994;14.052;2023-04-23T00:13:57;10.15;;;5.55;;
65275;SDS011;51875;49.994;14.052;2023-04-23T00:15:13;8.77;;;4.72;;
65275;SDS011;51875;49.994;14.052;2023-04-23T00:16:29;9.38;;;4.78;;
65275;SDS011;51875;49.994;14.052;2023-04-23T00:17:45;11.10;;;6.38;;
65275;SDS011;51875;49.994;14.052;2023-04-23T00:19:00;10.27;;;6.65;;
65275;SDS011;51875;49.994;14.052;2023-04-23T00:20:16;11.23;;;7.30;;
65275;SDS011;51875;49.994;14.052;2023-04-23T00:21:32;10.68;;;5.35;;
65275;SDS011;51875;49.994;14.052;2023-04-23T00:22:48;15.13;;;6.00;;
65275;SDS011;51875;49.994;14.052;2023-04-23T00:24:03;14.30;;;6.85;;
65275;SDS011;51875;49.994;14.052;2023-04-23T00:25:19;11.73;;;6.80;;
65275;SDS011;51875;49.994;14.052;2023-04-23T00:26:35;9.18;;;5.30;;
65275;SDS011;51875;49.994;14.052;2023-04-23T00:27:50;8.02;;;5.07;;
65275;SDS011;51875;49.994;14.052;2023-04-23T00:29:06;12.63;;;6.18;;
65275;SDS011;51875;49.994;14.052;2023-04-23T00:30:21;9.90;;;6.07;;
65275;SDS011;51875;49.994;14.052;2023-04-23T00:31:37;15.32;;;6.45;;
65275;SDS011;51875;49.994;14.052;2023-04-23T00:32:53;10.57;;;6.50;;
65275;SDS011;51875;49.994;14.052;2023-04-23T00:34:08;17.05;;;8.60;;
65275;SDS011;51875;49.994;14.052;2023-04-23T00:35:24;16.98;;;10.10;;
65275;SDS011;51875;49.994;14.052;2023-04-23T00:36:39;19.90;;;11.50;;
65275;SDS011;51875;49.994;14.052;2023-04-23T00:37:55;18.20;;;10.82;;
65275;SDS011;51875;49.994;14.052;2023-04-23T00:39:10;21.80;;;11.55;;
65275;SDS011;51875;49.994;14.052;2023-04-23T00:40:26;19.40;;;11.20;;
65275;SDS011;51875;49.994;14.052;2023-04-23T00:41:42;19.98;;;10.77;;
65275;SDS011;51875;49.994;14.052;2023-04-23T00:42:59;24.55;;;10.60;;
65275;SDS011;51875;49.994;14.052;2023-04-23T00:44:15;20.17;;;11.05;;
65275;SDS011;51875;49.994;14.052;2023-04-23T00:45:30;18.17;;;10.40;;
65275;SDS011;51875;49.994;14.052;2023-04-23T00:46:46;17.90;;;10.80;;
65275;SDS011;51875;49.994;14.052;2023-04-23T00:48:02;17.35;;;10.60;;
65275;SDS011;51875;49.994;14.052;2023-04-23T00:49:18;17.08;;;10.02;;
65275;SDS011;51875;49.994;14.052;2023-04-23T00:50:33;17.40;;;9.45;;
65275;SDS011;51875;49.994;14.052;2023-04-23T00:51:49;16.60;;;10.00;;
65275;SDS011;51875;49.994;14.052;2023-04-23T00:53:04;17.35;;;10.30;;
65275;SDS011;51875;49.994;14.052;2023-04-23T00:54:20;18.92;;;10.88;;
65275;SDS011;51875;49.994;14.052;2023-04-23T00:55:36;17.10;;;9.90;;
65275;SDS011;51875;49.994;14.052;2023-04-23T00:56:52;21.65;;;9.85;;
65275;SDS011;51875;49.994;14.052;2023-04-23T00:58:09;18.95;;;10.38;;
65275;SDS011;51875;49.994;14.052;2023-04-23T00:59:25;19.45;;;9.95;;
65275;SDS011;51875;49.994;14.052;2023-04-23T01:00:42;15.52;;;9.15;;
65275;SDS011;51875;49.994;14.052;2023-04-23T01:02:00;17.17;;;10.00;;
65275;SDS011;51875;49.994;14.052;2023-04-23T01:03:16;17.67;;;10.07;;
65275;SDS011;51875;49.994;14.052;2023-04-23T01:04:35;20.05;;;10.23;;
65275;SDS011;51875;49.994;14.052;2023-04-23T01:05:52;15.80;;;9.90;;
65275;SDS011;51875;49.994;14.052;2023-04-23T01:07:07;15.55;;;9.63;;
65275;SDS011;51875;49.994;14.052;2023-04-23T01:08:24;18.40;;;10.40;;
65275;SDS011;51875;49.994;14.052;2023-04-23T01:09:40;18.67;;;10.82;;
65275;SDS011;51875;49.994;14.052;2023-04-23T01:10:56;16.17;;;9.20;;
65275;SDS011;51875;49.994;14.052;2023-04-23T01:12:12;17.65;;;9.70;;
65275;SDS011;51875;49.994;14.052;2023-04-23T01:13:29;15.60;;;9.07;;
65275;SDS011;51875;49.994;14.052;2023-04-23T01:14:45;18.58;;;9.65;;
65275;SDS011;51875;49.994;14.052;2023-04-23T01:16:01;20.00;;;10.60;;
65275;SDS011;51875;49.994;14.052;2023-04-23T01:17:16;19.67;;;10.40;;
65275;SDS011;51875;49.994;14.052;2023-04-23T01:18:32;18.38;;;10.80;;
65275;SDS011;51875;49.994;14.052;2023-04-23T01:19:48;16.77;;;10.07;;
65275;SDS011;51875;49.994;14.052;2023-04-23T01:21:03;16.00;;;10.18;;
65275;SDS011;51875;49.994;14.052;2023-04-23T01:22:19;18.27;;;9.60;;
65275;SDS011;51875;49.994;14.052;2023-04-23T01:23:35;16.30;;;10.05;;
65275;SDS011;51875;49.994;14.052;2023-04-23T01:24:51;16.77;;;9.48;;
65275;SDS011;51875;49.994;14.052;2023-04-23T01:26:07;13.68;;;8.80;;
65275;SDS011;51875;49.994;14.052;2023-04-23T01:27:22;15.20;;;9.00;;
65275;SDS011;51875;49.994;14.052;2023-04-23T01:28:40;15.05;;;8.77;;
65275;SDS011;51875;49.994;14.052;2023-04-23T01:29:57;13.45;;;8.98;;
65275;SDS011;51875;49.994;14.052;2023-04-23T01:31:13;14.68;;;9.32;;
65275;SDS011;51875;49.994;14.052;2023-04-23T01:32:29;17.55;;;9.80;;
65275;SDS011;51875;49.994;14.052;2023-04-23T01:33:46;17.10;;;9.10;;
65275;SDS011;51875;49.994;14.052;2023-04-23T01:35:03;18.23;;;8.70;;
65275;SDS011;51875;49.994;14.052;2023-04-23T01:36:21;14.23;;;8.35;;
65275;SDS011;51875;49.994;14.052;2023-04-23T01:37:38;15.38;;;8.07;;
65275;SDS011;51875;49.994;14.052;2023-04-23T01:38:54;13.88;;;8.15;;
65275;SDS011;51875;49.994;14.052;2023-04-23T01:40:11;16.45;;;8.75;;
65275;SDS011;51875;49.994;14.052;2023-04-23T01:41:26;16.75;;;8.65;;
65275;SDS011;51875;49.994;14.052;2023-04-23T01:42:42;12.55;;;7.80;;
65275;SDS011;51875;49.994;14.052;2023-04-23T01:43:58;13.40;;;8.73;;
65275;SDS011;51875;49.994;14.052;2023-04-23T01:45:15;14.75;;;9.05;;
65275;SDS011;51875;49.994;14.052;2023-04-23T01:46:34;14.68;;;8.88;;
65275;SDS011;51875;49.994;14.052;2023-04-23T01:47:50;15.02;;;8.88;;
65275;SDS011;51875;49.994;14.052;2023-04-23T01:49:05;14.48;;;9.32;;
65275;SDS011;51875;49.994;14.052;2023-04-23T01:50:21;17.40;;;8.93;;
65275;SDS011;51875;49.994;14.052;2023-04-23T01:51:39;13.82;;;8.27;;
65275;SDS011;51875;49.994;14.052;2023-04-23T01:52:54;13.63;;;8.32;;
65275;SDS011;51875;49.994;14.052;2023-04-23T01:54:10;13.73;;;8.88;;
65275;SDS011;51875;49.994;14.052;2023-04-23T01:55:26;16.35;;;9.10;;
65275;SDS011;51875;49.994;14.052;2023-04-23T01:56:41;18.58;;;8.57;;
65275;SDS011;51875;49.994;14.052;2023-04-23T01:57:57;14.05;;;8.80;;
65275;SDS011;51875;49.994;14.052;2023-04-23T01:59:13;13.68;;;7.90;;
65275;SDS011;51875;49.994;14.052;2023-04-23T02:00:28;15.40;;;9.10;;
65275;SDS011;51875;49.994;14.052;2023-04-23T02:01:44;15.55;;;8.45;;
65275;SDS011;51875;49.994;14.052;2023-04-23T02:03:01;14.18;;;8.35;;
65275;SDS011;51875;49.994;14.052;2023-04-23T02:04:16;15.88;;;8.30;;
65275;SDS011;51875;49.994;14.052;2023-04-23T02:05:33;13.27;;;7.40;;
65275;SDS011;51875;49.994;14.052;2023-04-23T02:06:50;12.90;;;8.50;;
65275;SDS011;51875;49.994;14.052;2023-04-23T02:08:06;14.80;;;8.50;;
65275;SDS011;51875;49.994;14.052;2023-04-23T02:09:21;16.08;;;9.32;;
65275;SDS011;51875;49.994;14.052;2023-04-23T02:10:37;15.30;;;8.82;;
65275;SDS011;51875;49.994;14.052;2023-04-23T02:11:53;14.05;;;8.75;;
65275;SDS011;51875;49.994;14.052;2023-04-23T02:13:08;14.88;;;9.30;;
65275;SDS011;51875;49.994;14.052;2023-04-23T02:14:24;18.52;;;8.65;;
65275;SDS011;51875;49.994;14.052;2023-04-23T02:15:39;13.20;;;8.18;;
65275;SDS011;51875;49.994;14.052;2023-04-23T02:16:57;15.32;;;8.13;;
65275;SDS011;51875;49.994;14.052;2023-04-23T02:18:12;12.75;;;8.05;;
65275;SDS011;51875;49.994;14.052;2023-04-23T02:19:28;12.10;;;7.90;;
65275;SDS011;51875;49.994;14.052;2023-04-23T02:20:45;14.32;;;8.52;;
65275;SDS011;51875;49.994;14.052;2023-04-23T02:22:01;12.85;;;7.40;;
65275;SDS011;51875;49.994;14.052;2023-04-23T02:23:17;12.60;;;6.78;;
65275;SDS011;51875;49.994;14.052;2023-04-23T02:24:32;10.77;;;6.60;;
65275;SDS011;51875;49.994;14.052;2023-04-23T02:25:48;9.13;;;5.95;;
65275;SDS011;51875;49.994;14.052;2023-04-23T02:27:03;8.40;;;5.80;;
65275;SDS011;51875;49.994;14.052;2023-04-23T02:28:19;11.27;;;6.25;;
65275;SDS011;51875;49.994;14.052;2023-04-23T02:29:35;11.93;;;6.78;;
65275;SDS011;51875;49.994;14.052;2023-04-23T02:30:51;11.82;;;6.53;;
65275;SDS011;51875;49.994;14.052;2023-04-23T02:32:06;8.23;;;5.65;;
65275;SDS011;51875;49.994;14.052;2023-04-23T02:33:22;11.18;;;5.57;;
65275;SDS011;51875;49.994;14.052;2023-04-23T02:34:38;10.00;;;5.97;;
65275;SDS011;51875;49.994;14.052;2023-04-23T02:35:54;8.45;;;5.88;;
65275;SDS011;51875;49.994;14.052;2023-04-23T02:37:10;10.93;;;5.93;;
65275;SDS011;51875;49.994;14.052;2023-04-23T02:38:26;7.95;;;5.70;;
65275;SDS011;51875;49.994;14.052;2023-04-23T02:39:41;14.77;;;7.75;;
65275;SDS011;51875;49.994;14.052;2023-04-23T02:40:57;15.13;;;8.45;;
65275;SDS011;51875;49.994;14.052;2023-04-23T02:42:12;21.45;;;9.07;;
65275;SDS011;51875;49.994;14.052;2023-04-23T02:43:28;18.08;;;9.35;;
65275;SDS011;51875;49.994;14.052;2023-04-23T02:44:44;17.40;;;9.18;;
65275;SDS011;51875;49.994;14.052;2023-04-23T02:46:00;15.68;;;9.75;;
65275;SDS011;51875;49.994;14.052;2023-04-23T02:47:23;17.35;;;9.88;;
65275;SDS011;51875;49.994;14.052;2023-04-23T02:48:39;17.15;;;9.65;;
65275;SDS011;51875;49.994;14.052;2023-04-23T02:49:55;16.25;;;9.63;;
65275;SDS011;51875;49.994;14.052;2023-04-23T02:51:12;17.48;;;9.88;;
65275;SDS011;51875;49.994;14.052;2023-04-23T02:52:27;15.63;;;9.85;;
65275;SDS011;51875;49.994;14.052;2023-04-23T02:53:43;14.93;;;9.45;;
65275;SDS011;51875;49.994;14.052;2023-04-23T02:54:59;14.90;;;9.73;;
65275;SDS011;51875;49.994;14.052;2023-04-23T02:56:16;14.82;;;9.73;;
65275;SDS011;51875;49.994;14.052;2023-04-23T02:57:31;15.18;;;9.90;;
65275;SDS011;51875;49.994;14.052;2023-04-23T02:58:47;13.38;;;9.30;;
65275;SDS011;51875;49.994;14.052;2023-04-23T03:00:03;14.88;;;9.93;;
65275;SDS011;51875;49.994;14.052;2023-04-23T03:01:21;16.85;;;9.77;;
65275;SDS011;51875;49.994;14.052;2023-04-23T03:02:37;13.82;;;7.40;;
65275;SDS011;51875;49.994;14.052;2023-04-23T03:03:53;15.93;;;9.13;;
65275;SDS011;51875;49.994;14.052;2023-04-23T03:05:09;15.45;;;9.05;;
65275;SDS011;51875;49.994;14.052;2023-04-23T03:06:25;14.60;;;8.82;;
65275;SDS011;51875;49.994;14.052;2023-04-23T03:07:41;14.80;;;8.90;;
65275;SDS011;51875;49.994;14.052;2023-04-23T03:08:57;13.82;;;8.02;;
65275;SDS011;51875;49.994;14.052;2023-04-23T03:10:12;12.02;;;8.25;;
65275;SDS011;51875;49.994;14.052;2023-04-23T03:11:30;15.13;;;9.07;;
65275;SDS011;51875;49.994;14.052;2023-04-23T03:12:46;14.30;;;8.48;;
65275;SDS011;51875;49.994;14.052;2023-04-23T03:14:01;15.48;;;9.07;;
65275;SDS011;51875;49.994;14.052;2023-04-23T03:15:17;14.75;;;9.93;;
65275;SDS011;51875;49.994;14.052;2023-04-23T03:16:33;16.30;;;9.20;;
65275;SDS011;51875;49.994;14.052;2023-04-23T03:17:49;15.63;;;9.40;;
65275;SDS011;51875;49.994;14.052;2023-04-23T03:19:06;16.10;;;9.52;;
65275;SDS011;51875;49.994;14.052;2023-04-23T03:20:22;16.13;;;9.73;;
65275;SDS011;51875;49.994;14.052;2023-04-23T03:21:37;15.40;;;9.25;;
65275;SDS011;51875;49.994;14.052;2023-04-23T03:22:53;19.52;;;9.93;;
65275;SDS011;51875;49.994;14.052;2023-04-23T03:24:11;18.00;;;9.55;;
65275;SDS011;51875;49.994;14.052;2023-04-23T03:25:27;13.55;;;9.13;;
65275;SDS011;51875;49.994;14.052;2023-04-23T03:26:43;17.00;;;9.52;;
65275;SDS011;51875;49.994;14.052;2023-04-23T03:27:58;16.05;;;9.43;;
65275;SDS011;51875;49.994;14.052;2023-04-23T03:29:14;15.45;;;8.82;;
65275;SDS011;51875;49.994;14.052;2023-04-23T03:30:30;15.68;;;9.02;;
65275;SDS011;51875;49.994;14.052;2023-04-23T03:31:45;13.07;;;8.32;;
65275;SDS011;51875;49.994;14.052;2023-04-23T03:33:01;16.17;;;9.40;;
65275;SDS011;51875;49.994;14.052;2023-04-23T03:34:17;15.10;;;9.57;;
65275;SDS011;51875;49.994;14.052;2023-04-23T03:35:32;13.30;;;9.15;;
65275;SDS011;51875;49.994;14.052;2023-04-23T03:36:48;13.73;;;8.85;;
65275;SDS011;51875;49.994;14.052;2023-04-23T03:38:05;18.23;;;9.63;;
65275;SDS011;51875;49.994;14.052;2023-04-23T03:39:20;14.25;;;9.05;;
65275;SDS011;51875;49.994;14.052;2023-04-23T03:40:36;15.55;;;9.25;;
65275;SDS011;51875;49.994;14.052;2023-04-23T03:41:52;15.18;;;8.63;;
65275;SDS011;51875;49.994;14.052;2023-04-23T03:43:07;12.68;;;8.32;;
65275;SDS011;51875;49.994;14.052;2023-04-23T03:44:22;15.52;;;8.93;;
65275;SDS011;51875;49.994;14.052;2023-04-23T03:45:38;13.18;;;8.27;;
65275;SDS011;51875;49.994;14.052;2023-04-23T03:46:57;12.88;;;8.05;;
65275;SDS011;51875;49.994;14.052;2023-04-23T03:48:12;15.95;;;8.65;;
65275;SDS011;51875;49.994;14.052;2023-04-23T03:49:28;11.25;;;7.88;;
65275;SDS011;51875;49.994;14.052;2023-04-23T03:50:44;13.90;;;8.60;;
65275;SDS011;51875;49.994;14.052;2023-04-23T03:51:59;13.80;;;8.38;;
65275;SDS011;51875;49.994;14.052;2023-04-23T03:53:15;14.13;;;8.32;;
65275;SDS011;51875;49.994;14.052;2023-04-23T03:54:31;13.95;;;8.43;;
65275;SDS011;51875;49.994;14.052;2023-04-23T03:55:47;13.18;;;8.88;;
65275;SDS011;51875;49.994;14.052;2023-04-23T03:57:02;11.85;;;8.88;;
65275;SDS011;51875;49.994;14.052;2023-04-23T03:58:18;16.77;;;9.52;;
65275;SDS011;51875;49.994;14.052;2023-04-23T03:59:33;15.02;;;9.10;;
65275;SDS011;51875;49.994;14.052;2023-04-23T04:00:50;14.50;;;9.63;;
65275;SDS011;51875;49.994;14.052;2023-04-23T04:02:05;17.48;;;9.63;;
65275;SDS011;51875;49.994;14.052;2023-04-23T04:03:21;16.23;;;9.40;;
65275;SDS011;51875;49.994;14.052;2023-04-23T04:04:36;15.40;;;9.30;;
65275;SDS011;51875;49.994;14.052;2023-04-23T04:05:52;14.32;;;9.02;;
65275;SDS011;51875;49.994;14.052;2023-04-23T04:07:07;13.88;;;9.80;;
65275;SDS011;51875;49.994;14.052;2023-04-23T04:08:26;16.00;;;9.25;;
65275;SDS011;51875;49.994;14.052;2023-04-23T04:09:41;14.25;;;9.30;;
65275;SDS011;51875;49.994;14.052;2023-04-23T04:10:57;13.93;;;9.60;;
65275;SDS011;51875;49.994;14.052;2023-04-23T04:12:13;14.82;;;9.15;;
65275;SDS011;51875;49.994;14.052;2023-04-23T04:13:28;12.90;;;8.55;;
65275;SDS011;51875;49.994;14.052;2023-04-23T04:14:44;14.25;;;9.02;;
65275;SDS011;51875;49.994;14.052;2023-04-23T04:16:00;17.05;;;9.63;;
65275;SDS011;51875;49.994;14.052;2023-04-23T04:17:15;19.10;;;9.90;;
65275;SDS011;51875;49.994;14.052;2023-04-23T04:18:31;16.77;;;9.05;;
65275;SDS011;51875;49.994;14.052;2023-04-23T04:19:46;13.05;;;8.55;;
65275;SDS011;51875;49.994;14.052;2023-04-23T04:21:02;15.95;;;9.40;;
65275;SDS011;51875;49.994;14.052;2023-04-23T04:22:18;13.70;;;8.93;;
65275;SDS011;51875;49.994;14.052;2023-04-23T04:23:33;13.55;;;8.50;;
65275;SDS011;51875;49.994;14.052;2023-04-23T04:24:50;14.27;;;8.55;;
65275;SDS011;51875;49.994;14.052;2023-04-23T04:26:06;11.35;;;8.43;;
65275;SDS011;51875;49.994;14.052;2023-04-23T04:27:22;15.35;;;8.80;;
65275;SDS011;51875;49.994;14.052;2023-04-23T04:28:38;15.15;;;9.05;;
65275;SDS011;51875;49.994;14.052;2023-04-23T04:29:53;13.68;;;8.55;;
65275;SDS011;51875;49.994;14.052;2023-04-23T04:31:09;13.68;;;9.20;;
65275;SDS011;51875;49.994;14.052;2023-04-23T04:32:25;15.07;;;9.20;;
65275;SDS011;51875;49.994;14.052;2023-04-23T04:33:41;17.23;;;9.63;;
65275;SDS011;51875;49.994;14.052;2023-04-23T04:34:57;13.27;;;9.18;;
65275;SDS011;51875;49.994;14.052;2023-04-23T04:36:13;16.77;;;9.98;;
65275;SDS011;51875;49.994;14.052;2023-04-23T04:37:28;16.33;;;9.48;;
65275;SDS011;51875;49.994;14.052;2023-04-23T04:38:44;14.43;;;9.57;;
65275;SDS011;51875;49.994;14.052;2023-04-23T04:40:00;14.35;;;9.85;;
65275;SDS011;51875;49.994;14.052;2023-04-23T04:41:16;18.25;;;9.90;;
65275;SDS011;51875;49.994;14.052;2023-04-23T04:42:34;16.02;;;9.93;;
65275;SDS011;51875;49.994;14.052;2023-04-23T04:43:50;13.80;;;9.95;;
65275;SDS011;51875;49.994;14.052;2023-04-23T04:45:06;14.75;;;10.40;;
65275;SDS011;51875;49.994;14.052;2023-04-23T04:46:23;15.23;;;9.30;;
65275;SDS011;51875;49.994;14.052;2023-04-23T04:47:43;15.77;;;9.20;;
65275;SDS011;51875;49.994;14.052;2023-04-23T04:48:58;18.08;;;10.63;;
65275;SDS011;51875;49.994;14.052;2023-04-23T04:50:14;16.60;;;10.85;;
65275;SDS011;51875;49.994;14.052;2023-04-23T04:51:30;18.20;;;10.18;;
65275;SDS011;51875;49.994;14.052;2023-04-23T04:52:45;16.00;;;10.15;;
65275;SDS011;51875;49.994;14.052;2023-04-23T04:54:01;15.52;;;9.23;;
65275;SDS011;51875;49.994;14.052;2023-04-23T04:55:16;14.00;;;9.63;;
65275;SDS011;51875;49.994;14.052;2023-04-23T04:56:32;19.10;;;9.80;;
65275;SDS011;51875;49.994;14.052;2023-04-23T04:57:49;14.45;;;9.88;;
65275;SDS011;51875;49.994;14.052;2023-04-23T04:59:04;17.27;;;9.90;;
65275;SDS011;51875;49.994;14.052;2023-04-23T05:00:20;15.32;;;10.07;;
65275;SDS011;51875;49.994;14.052;2023-04-23T05:01:38;16.98;;;10.05;;
65275;SDS011;51875;49.994;14.052;2023-04-23T05:02:54;17.00;;;10.38;;
65275;SDS011;51875;49.994;14.052;2023-04-23T05:04:11;22.35;;;11.48;;
65275;SDS011;51875;49.994;14.052;2023-04-23T05:05:27;17.23;;;10.65;;
65275;SDS011;51875;49.994;14.052;2023-04-23T05:06:42;15.95;;;10.15;;
65275;SDS011;51875;49.994;14.052;2023-04-23T05:07:58;16.45;;;10.27;;
65275;SDS011;51875;49.994;14.052;2023-04-23T05:09:16;18.55;;;10.00;;
65275;SDS011;51875;49.994;14.052;2023-04-23T05:10:31;15.38;;;9.93;;
65275;SDS011;51875;49.994;14.052;2023-04-23T05:11:47;15.40;;;10.38;;
65275;SDS011;51875;49.994;14.052;2023-04-23T05:13:03;15.43;;;10.20;;
65275;SDS011;51875;49.994;14.052;2023-04-23T05:14:18;14.63;;;10.27;;
65275;SDS011;51875;49.994;14.052;2023-04-23T05:15:34;14.65;;;9.48;;
65275;SDS011;51875;49.994;14.052;2023-04-23T05:16:50;18.40;;;11.05;;
65275;SDS011;51875;49.994;14.052;2023-04-23T05:18:05;16.45;;;10.30;;
65275;SDS011;51875;49.994;14.052;2023-04-23T05:19:21;14.05;;;9.93;;
65275;SDS011;51875;49.994;14.052;2023-04-23T05:20:38;16.77;;;10.00;;
65275;SDS011;51875;49.994;14.052;2023-04-23T05:21:53;16.73;;;10.15;;
65275;SDS011;51875;49.994;14.052;2023-04-23T05:23:09;15.70;;;9.68;;
65275;SDS011;51875;49.994;14.052;2023-04-23T05:24:25;16.85;;;10.98;;
65275;SDS011;51875;49.994;14.052;2023-04-23T05:25:41;15.00;;;10.68;;
65275;SDS011;51875;49.994;14.052;2023-04-23T05:26:56;16.63;;;9.98;;
65275;SDS011;51875;49.994;14.052;2023-04-23T05:28:12;17.63;;;10.48;;
65275;SDS011;51875;49.994;14.052;2023-04-23T05:29:27;18.25;;;10.10;;
65275;SDS011;51875;49.994;14.052;2023-04-23T05:30:43;16.27;;;10.27;;
65275;SDS011;51875;49.994;14.052;2023-04-23T05:31:59;17.77;;;9.13;;
65275;SDS011;51875;49.994;14.052;2023-04-23T05:33:14;15.13;;;9.13;;
65275;SDS011;51875;49.994;14.052;2023-04-23T05:34:30;12.95;;;8.88;;
65275;SDS011;51875;49.994;14.052;2023-04-23T05:35:46;13.82;;;9.20;;
65275;SDS011;51875;49.994;14.052;2023-04-23T05:37:01;16.30;;;9.48;;
65275;SDS011;51875;49.994;14.052;2023-04-23T05:38:17;15.52;;;8.90;;
65275;SDS011;51875;49.994;14.052;2023-04-23T05:39:33;16.73;;;9.20;;
65275;SDS011;51875;49.994;14.052;2023-04-23T05:40:48;12.70;;;9.25;;
65275;SDS011;51875;49.994;14.052;2023-04-23T05:42:04;18.42;;;9.50;;
65275;SDS011;51875;49.994;14.052;2023-04-23T05:43:19;12.60;;;9.00;;
65275;SDS011;51875;49.994;14.052;2023-04-23T05:44:35;15.18;;;9.20;;
65275;SDS011;51875;49.994;14.052;2023-04-23T05:45:52;12.45;;;8.25;;
65275;SDS011;51875;49.994;14.052;2023-04-23T05:47:09;16.08;;;9.73;;
65275;SDS011;51875;49.994;14.052;2023-04-23T05:48:25;20.15;;;9.55;;
65275;SDS011;51875;49.994;14.052;2023-04-23T05:49:41;15.80;;;8.80;;
65275;SDS011;51875;49.994;14.052;2023-04-23T05:50:56;11.45;;;8.40;;
65275;SDS011;51875;49.994;14.052;2023-04-23T05:52:12;15.98;;;8.73;;
65275;SDS011;51875;49.994;14.052;2023-04-23T05:53:28;14.35;;;8.73;;
65275;SDS011;51875;49.994;14.052;2023-04-23T05:54:44;14.45;;;8.93;;
65275;SDS011;51875;49.994;14.052;2023-04-23T05:55:59;17.13;;;8.30;;
65275;SDS011;51875;49.994;14.052;2023-04-23T05:57:15;14.35;;;8.77;;
65275;SDS011;51875;49.994;14.052;2023-04-23T05:58:31;13.48;;;9.23;;
65275;SDS011;51875;49.994;14.052;2023-04-23T05:59:46;12.85;;;8.20;;
65275;SDS011;51875;49.994;14.052;2023-04-23T06:01:02;12.60;;;8.45;;
65275;SDS011;51875;49.994;14.052;2023-04-23T06:02:17;12.35;;;8.35;;
65275;SDS011;51875;49.994;14.052;2023-04-23T06:03:33;13.90;;;8.93;;
65275;SDS011;51875;49.994;14.052;2023-04-23T06:04:50;13.45;;;8.13;;
65275;SDS011;51875;49.994;14.052;2023-04-23T06:06:09;15.25;;;8.90;;
65275;SDS011;51875;49.994;14.052;2023-04-23T06:07:25;12.93;;;8.63;;
65275;SDS011;51875;49.994;14.052;2023-04-23T06:08:41;12.85;;;8.00;;
65275;SDS011;51875;49.994;14.052;2023-04-23T06:09:57;12.45;;;8.00;;
65275;SDS011;51875;49.994;14.052;2023-04-23T06:11:12;10.85;;;8.07;;
65275;SDS011;51875;49.994;14.052;2023-04-23T06:12:28;13.77;;;8.40;;
65275;SDS011;51875;49.994;14.052;2023-04-23T06:13:43;13.70;;;8.75;;
65275;SDS011;51875;49.994;14.052;2023-04-23T06:15:01;14.02;;;8.55;;
65275;SDS011;51875;49.994;14.052;2023-04-23T06:16:16;13.13;;;9.05;;
65275;SDS011;51875;49.994;14.052;2023-04-23T06:17:32;13.93;;;9.10;;
65275;SDS011;51875;49.994;14.052;2023-04-23T06:18:47;11.77;;;8.20;;
65275;SDS011;51875;49.994;14.052;2023-04-23T06:20:03;13.02;;;8.68;;
65275;SDS011;51875;49.994;14.052;2023-04-23T06:21:19;13.23;;;8.60;;
65275;SDS011;51875;49.994;14.052;2023-04-23T06:22:35;15.55;;;8.43;;
65275;SDS011;51875;49.994;14.052;2023-04-23T06:23:50;13.02;;;7.68;;
65275;SDS011;51875;49.994;14.052;2023-04-23T06:25:06;10.43;;;6.88;;
65275;SDS011;51875;49.994;14.052;2023-04-23T06:26:22;10.77;;;7.65;;
65275;SDS011;51875;49.994;14.052;2023-04-23T06:27:38;11.30;;;7.88;;
65275;SDS011;51875;49.994;14.052;2023-04-23T06:28:54;11.70;;;7.93;;
65275;SDS011;51875;49.994;14.052;2023-04-23T06:30:09;13.93;;;7.57;;
65275;SDS011;51875;49.994;14.052;2023-04-23T06:31:26;13.98;;;7.63;;
65275;SDS011;51875;49.994;14.052;2023-04-23T06:32:42;11.13;;;7.63;;
65275;SDS011;51875;49.994;14.052;2023-04-23T06:33:58;14.38;;;7.63;;
65275;SDS011;51875;49.994;14.052;2023-04-23T06:35:14;11.95;;;7.75;;
65275;SDS011;51875;49.994;14.052;2023-04-23T06:36:30;13.25;;;8.32;;
65275;SDS011;51875;49.994;14.052;2023-04-23T06:37:46;13.10;;;7.97;;
65275;SDS011;51875;49.994;14.052;2023-04-23T06:39:01;10.70;;;7.40;;
65275;SDS011;51875;49.994;14.052;2023-04-23T06:40:18;10.70;;;7.82;;
65275;SDS011;51875;49.994;14.052;2023-04-23T06:41:33;16.65;;;8.23;;
65275;SDS011;51875;49.994;14.052;2023-04-23T06:42:49;12.35;;;8.20;;
65275;SDS011;51875;49.994;14.052;2023-04-23T06:44:05;14.82;;;8.55;;
65275;SDS011;51875;49.994;14.052;2023-04-23T06:45:20;12.25;;;7.53;;
65275;SDS011;51875;49.994;14.052;2023-04-23T06:46:36;12.48;;;9.00;;
65275;SDS011;51875;49.994;14.052;2023-04-23T06:47:51;10.98;;;7.45;;
65275;SDS011;51875;49.994;14.052;2023-04-23T06:49:07;11.60;;;7.90;;
65275;SDS011;51875;49.994;14.052;2023-04-23T06:50:22;11.15;;;7.28;;
65275;SDS011;51875;49.994;14.052;2023-04-23T06:51:38;14.38;;;7.93;;
65275;SDS011;51875;49.994;14.052;2023-04-23T06:52:54;10.55;;;7.93;;
65275;SDS011;51875;49.994;14.052;2023-04-23T06:54:10;11.27;;;8.43;;
65275;SDS011;51875;49.994;14.052;2023-04-23T06:55:26;13.93;;;8.80;;
65275;SDS011;51875;49.994;14.052;2023-04-23T06:56:43;13.68;;;8.25;;
65275;SDS011;51875;49.994;14.052;2023-04-23T06:57:58;10.32;;;7.95;;
65275;SDS011;51875;49.994;14.052;2023-04-23T06:59:14;12.23;;;9.20;;
65275;SDS011;51875;49.994;14.052;2023-04-23T07:00:29;13.27;;;8.43;;
65275;SDS011;51875;49.994;14.052;2023-04-23T07:01:45;13.30;;;9.10;;
65275;SDS011;51875;49.994;14.052;2023-04-23T07:03:02;13.27;;;8.57;;
65275;SDS011;51875;49.994;14.052;2023-04-23T07:04:18;14.00;;;8.55;;
65275;SDS011;51875;49.994;14.052;2023-04-23T07:05:33;12.80;;;8.30;;
65275;SDS011;51875;49.994;14.052;2023-04-23T07:06:49;13.07;;;8.85;;
65275;SDS011;51875;49.994;14.052;2023-04-23T07:08:04;11.85;;;8.65;;
65275;SDS011;51875;49.994;14.052;2023-04-23T07:09:20;12.30;;;8.63;;
65275;SDS011;51875;49.994;14.052;2023-04-23T07:10:35;11.07;;;7.90;;
65275;SDS011;51875;49.994;14.052;2023-04-23T07:11:51;9.60;;;8.00;;
65275;SDS011;51875;49.994;14.052;2023-04-23T07:13:07;13.95;;;8.45;;
65275;SDS011;51875;49.994;14.052;2023-04-23T07:14:22;12.38;;;8.18;;
65275;SDS011;51875;49.994;14.052;2023-04-23T07:15:38;14.90;;;9.43;;
65275;SDS011;51875;49.994;14.052;2023-04-23T07:16:55;13.13;;;9.13;;
65275;SDS011;51875;49.994;14.052;2023-04-23T07:18:11;12.18;;;8.05;;
65275;SDS011;51875;49.994;14.052;2023-04-23T07:19:27;13.48;;;8.65;;
65275;SDS011;51875;49.994;14.052;2023-04-23T07:20:42;11.80;;;8.57;;
65275;SDS011;51875;49.994;14.052;2023-04-23T07:21:58;13.60;;;9.23;;
65275;SDS011;51875;49.994;14.052;2023-04-23T07:23:13;11.45;;;8.00;;
65275;SDS011;51875;49.994;14.052;2023-04-23T07:24:29;13.20;;;9.23;;